createdAt,value
2018-07-28T07:43:36.500Z,23.53
2018-07-28T07:44:36.340Z,23.54
2018-07-28T07:45:36.718Z,23.54
2018-07-28T07:46:36.481Z,23.52
2018-07-28T07:47:37.426Z,23.47
2018-07-28T07:48:36.411Z,23.5
2018-07-28T07:49:36.526Z,23.46
2018-07-28T07:50:36.304Z,23.52
2018-07-28T07:51:36.413Z,23.5
2018-07-28T07:52:36.767Z,23.54
2018-07-28T07:53:36.489Z,23.54
2018-07-28T07:54:36.276Z,23.57
2018-07-28T07:55:36.737Z,23.54
2018-07-28T07:56:36.518Z,23.57
2018-07-28T07:57:36.598Z,23.57
2018-07-28T07:58:36.458Z,23.6
2018-07-28T07:59:36.703Z,23.59
2018-07-28T08:00:36.673Z,23.59
2018-07-28T08:01:36.561Z,23.6
2018-07-28T08:02:36.523Z,23.63
2018-07-28T08:03:36.597Z,23.62
2018-07-28T08:04:36.419Z,23.62
2018-07-28T08:05:36.589Z,23.6
2018-07-28T08:06:36.351Z,23.63
2018-07-28T08:07:36.692Z,23.64
2018-07-28T08:08:36.473Z,23.6
2018-07-28T08:09:36.580Z,23.59
2018-07-28T08:10:36.637Z,23.53
2018-07-28T08:11:36.664Z,23.53
2018-07-28T08:12:37.213Z,23.49
2018-07-28T08:13:36.565Z,23.49
2018-07-28T08:14:36.304Z,23.5
2018-07-28T08:15:36.227Z,23.49
2018-07-28T08:16:36.518Z,23.47
2018-07-28T08:17:36.649Z,23.47
2018-07-28T08:18:36.686Z,23.49
2018-07-28T08:19:36.520Z,23.45
2018-07-28T08:20:36.369Z,23.43
2018-07-28T08:21:36.637Z,23.45
2018-07-28T08:22:36.531Z,23.45
2018-07-28T08:23:36.860Z,23.45
2018-07-28T08:24:36.279Z,23.42
2018-07-28T08:25:36.440Z,23.4
2018-07-28T08:26:36.523Z,23.39
2018-07-28T08:27:36.279Z,23.4
2018-07-28T08:28:36.708Z,23.39
2018-07-28T08:29:36.474Z,23.42
2018-07-28T08:30:36.457Z,23.4
2018-07-28T08:31:36.359Z,23.39
2018-07-28T08:32:36.418Z,23.39
2018-07-28T08:33:36.271Z,23.37
2018-07-28T08:34:36.322Z,23.39
2018-07-28T08:35:36.556Z,23.37
2018-07-28T08:36:36.333Z,23.39
2018-07-28T08:37:36.428Z,23.37
2018-07-28T08:38:36.279Z,23.36
2018-07-28T08:39:36.377Z,23.37
2018-07-28T08:40:36.461Z,23.36
2018-07-28T08:41:36.319Z,23.37
2018-07-28T08:42:36.241Z,23.37
2018-07-28T08:43:36.305Z,23.36
2018-07-28T08:44:36.483Z,23.39
2018-07-28T08:45:36.240Z,23.37
2018-07-28T08:46:36.433Z,23.36
2018-07-28T08:47:36.220Z,23.35
2018-07-28T08:48:36.506Z,23.37
2018-07-28T08:49:37.392Z,23.36
2018-07-28T08:50:36.430Z,23.36
2018-07-28T08:51:36.311Z,23.35
2018-07-28T08:52:36.645Z,23.37
2018-07-28T08:53:36.417Z,23.36
2018-07-28T08:54:36.948Z,23.37
2018-07-28T08:55:37.704Z,23.39
2018-07-28T08:56:36.482Z,23.42
2018-07-28T08:57:36.507Z,23.43
2018-07-28T08:58:36.374Z,23.42
2018-07-28T08:59:36.525Z,23.43
2018-07-28T09:00:36.277Z,23.43
2018-07-28T09:01:36.564Z,23.46
2018-07-28T09:02:36.568Z,23.46
2018-07-28T09:03:36.772Z,23.47
2018-07-28T09:04:36.986Z,23.47
2018-07-28T09:05:36.835Z,23.47
2018-07-28T09:06:36.445Z,23.52
2018-07-28T09:07:36.860Z,23.5
2018-07-28T09:08:37.536Z,23.53
2018-07-28T09:09:36.250Z,23.53
2018-07-28T09:10:37.557Z,23.53
2018-07-28T09:11:36.454Z,23.53
2018-07-28T09:12:36.490Z,23.54
2018-07-28T09:13:36.644Z,23.57
2018-07-28T09:14:36.497Z,23.56
2018-07-28T09:15:36.327Z,23.54
2018-07-28T09:16:36.276Z,23.56
2018-07-28T09:17:36.345Z,23.59
2018-07-28T09:18:36.281Z,23.59
2018-07-28T09:19:36.709Z,23.57
2018-07-28T09:20:36.603Z,23.6
2018-07-28T09:21:36.389Z,23.6
2018-07-28T09:22:37.343Z,23.62
2018-07-28T09:23:37.332Z,23.59
2018-07-28T09:24:36.721Z,23.6
2018-07-28T09:25:36.515Z,23.59
2018-07-28T09:26:36.431Z,23.59
2018-07-28T09:27:36.363Z,23.59
2018-07-28T09:28:36.674Z,23.56
2018-07-28T09:29:36.461Z,23.56
2018-07-28T09:30:37.292Z,23.59
2018-07-28T09:31:36.388Z,23.57
2018-07-28T09:32:36.424Z,23.56
2018-07-28T09:33:36.818Z,23.6
2018-07-28T09:34:36.683Z,23.6
2018-07-28T09:35:36.474Z,23.62
2018-07-28T09:36:36.320Z,23.6
2018-07-28T09:37:36.668Z,23.59
2018-07-28T09:38:36.384Z,23.59
2018-07-28T09:39:36.487Z,23.57
2018-07-28T09:40:36.852Z,23.57
2018-07-28T09:41:36.536Z,23.56
2018-07-28T09:42:36.360Z,23.56
2018-07-28T09:43:36.414Z,23.56
2018-07-28T09:44:36.352Z,23.57
2018-07-28T09:45:36.426Z,23.56
2018-07-28T09:46:36.435Z,23.57
2018-07-28T09:47:36.214Z,23.59
2018-07-28T09:48:36.500Z,23.57
2018-07-28T09:49:36.544Z,23.59
2018-07-28T09:50:36.393Z,23.6
2018-07-28T09:51:36.442Z,23.6
2018-07-28T09:52:36.613Z,23.63
2018-07-28T09:53:36.371Z,23.63
2018-07-28T09:55:26.549Z,23.66
2018-07-28T09:55:36.657Z,23.66
2018-07-28T09:56:36.331Z,23.64
2018-07-28T09:57:36.285Z,23.66
2018-07-28T09:58:36.435Z,23.67
2018-07-28T09:59:36.404Z,23.67
2018-07-28T10:00:36.339Z,23.67
2018-07-28T10:01:36.451Z,23.7
2018-07-28T10:02:36.280Z,23.69
2018-07-28T10:03:36.500Z,23.7
2018-07-28T10:04:36.594Z,23.71
2018-07-28T10:05:37.737Z,23.73
2018-07-28T10:06:36.267Z,23.73
2018-07-28T10:07:36.544Z,23.74
2018-07-28T10:08:36.463Z,23.76
2018-07-28T10:09:36.424Z,23.71
2018-07-28T10:10:36.619Z,23.76
2018-07-28T10:11:36.380Z,23.73
2018-07-28T10:12:36.382Z,23.76
2018-07-28T10:13:36.423Z,23.76
2018-07-28T10:14:36.304Z,23.77
2018-07-28T10:15:36.200Z,23.76
2018-07-28T10:16:36.303Z,23.76
2018-07-28T10:17:36.364Z,23.77
2018-07-28T10:18:36.396Z,23.79
2018-07-28T10:19:36.726Z,23.79
2018-07-28T10:20:36.521Z,23.83
2018-07-28T10:21:36.260Z,23.83
2018-07-28T10:22:36.528Z,23.83
2018-07-28T10:23:36.418Z,23.83
2018-07-28T10:24:36.693Z,23.81
2018-07-28T10:25:36.395Z,23.83
2018-07-28T10:26:36.275Z,23.83
2018-07-28T10:27:36.464Z,23.84
2018-07-28T10:28:36.445Z,23.88
2018-07-28T10:29:36.459Z,23.88
2018-07-28T10:30:36.246Z,23.87
2018-07-28T10:31:37.335Z,23.85
2018-07-28T10:32:36.399Z,23.85
2018-07-28T10:33:36.208Z,23.87
2018-07-28T10:34:36.478Z,23.88
2018-07-28T10:35:36.386Z,23.87
2018-07-28T10:36:36.904Z,23.87
2018-07-28T10:37:36.721Z,23.87
2018-07-28T10:38:36.466Z,23.91
2018-07-28T10:39:36.484Z,23.88
2018-07-28T10:40:36.433Z,23.9
2018-07-28T10:41:36.315Z,23.88
2018-07-28T10:42:36.218Z,23.9
2018-07-28T10:43:36.440Z,23.87
2018-07-28T10:44:36.475Z,23.91
2018-07-28T10:45:37.100Z,23.9
2018-07-28T10:46:36.759Z,23.91
2018-07-28T10:47:36.408Z,23.92
2018-07-28T10:48:36.323Z,23.92
2018-07-28T10:49:36.569Z,23.92
2018-07-28T10:50:36.290Z,23.94
2018-07-28T10:51:36.317Z,23.92
2018-07-28T10:51:59.914Z,23.98
2018-07-28T10:52:58.864Z,23.94
2018-07-28T10:54:16.690Z,23.92
2018-07-28T10:55:17.059Z,23.9
2018-07-28T10:56:17.178Z,23.88
2018-07-28T10:57:16.865Z,23.91
2018-07-28T10:57:59.944Z,23.91
2018-07-28T10:59:00.323Z,23.87
2018-07-28T11:00:00.669Z,23.87
2018-07-28T11:00:59.984Z,23.87
2018-07-28T11:01:59.882Z,23.88
2018-07-28T11:03:00.082Z,23.9
2018-07-28T11:04:00.186Z,23.87
2018-07-28T11:04:59.841Z,23.9
2018-07-28T11:06:00.078Z,23.88
2018-07-28T11:07:14.834Z,23.87
2018-07-28T11:08:14.832Z,23.9
2018-07-28T11:09:15.912Z,23.9
2018-07-28T11:10:14.813Z,23.9
2018-07-28T11:11:14.801Z,23.9
2018-07-28T11:12:14.824Z,23.9
2018-07-28T11:13:14.855Z,23.88
2018-07-28T11:14:14.898Z,23.87
2018-07-28T11:15:14.766Z,23.85
2018-07-28T11:16:14.944Z,23.87
2018-07-28T11:17:14.991Z,23.88
2018-07-28T11:18:14.880Z,23.88
2018-07-28T11:19:14.866Z,23.91
2018-07-28T11:19:44.992Z,23.95
2018-07-28T11:20:58.765Z,23.98
2018-07-28T11:21:58.820Z,24.05
2018-07-28T11:22:58.959Z,24.01
2018-07-28T11:23:58.794Z,23.99
2018-07-28T11:24:59.042Z,23.99
2018-07-28T11:26:00.067Z,23.98
2018-07-28T11:26:58.887Z,23.95
2018-07-28T11:27:58.837Z,23.94
2018-07-28T11:28:58.905Z,23.9
2018-07-28T11:29:59.169Z,23.92
2018-07-28T11:30:58.986Z,23.88
2018-07-28T11:31:59.751Z,23.88
2018-07-28T11:32:58.909Z,23.88
2018-07-28T11:33:58.988Z,23.9
2018-07-28T11:34:58.967Z,23.85
2018-07-28T11:35:58.952Z,23.84
2018-07-28T11:36:58.788Z,23.84
2018-07-28T11:38:00.046Z,23.8
2018-07-28T11:38:58.981Z,23.8
2018-07-28T11:39:59.009Z,23.77
2018-07-28T11:40:58.990Z,23.8
2018-07-28T11:41:58.866Z,23.79
2018-07-28T11:42:58.833Z,23.79
2018-07-28T11:43:59.216Z,23.84
2018-07-28T11:44:58.841Z,23.83
2018-07-28T11:45:59.951Z,23.83
2018-07-28T11:46:59.026Z,23.83
2018-07-28T11:47:58.803Z,23.83
2018-07-28T11:48:59.051Z,23.84
2018-07-28T11:49:58.825Z,23.81
2018-07-28T11:50:58.871Z,23.81
2018-07-28T11:51:58.790Z,23.83
2018-07-28T11:52:58.890Z,23.81
2018-07-28T11:53:59.264Z,23.81
2018-07-28T11:54:58.856Z,23.8
2018-07-28T11:55:58.951Z,23.81
2018-07-28T11:56:58.831Z,23.83
2018-07-28T11:57:59.572Z,23.81
2018-07-28T11:58:59.119Z,23.81
2018-07-28T11:59:58.829Z,23.81
2018-07-28T12:00:58.974Z,23.84
2018-07-28T12:01:59.061Z,23.83
2018-07-28T12:02:58.948Z,23.81
2018-07-28T12:03:58.772Z,23.8
2018-07-28T12:04:59.050Z,23.79
2018-07-28T12:05:58.912Z,23.81
2018-07-28T12:06:59.015Z,23.8
2018-07-28T12:07:58.822Z,23.8
2018-07-28T12:08:58.832Z,23.79
2018-07-28T12:09:58.891Z,23.79
2018-07-28T12:10:59.170Z,23.8
2018-07-28T12:11:58.889Z,23.81
2018-07-28T12:12:59.019Z,23.81
2018-07-28T12:13:59.261Z,23.81
2018-07-28T12:14:58.908Z,23.81
2018-07-28T12:15:58.760Z,23.79
2018-07-28T12:16:58.789Z,23.77
2018-07-28T12:17:59.054Z,23.74
2018-07-28T12:18:58.891Z,23.76
2018-07-28T12:19:59.011Z,23.73
2018-07-28T12:20:59.013Z,23.74
2018-07-28T12:21:58.754Z,23.71
2018-07-28T12:22:58.981Z,23.74
2018-07-28T12:23:59.795Z,23.73
2018-07-28T12:24:59.007Z,23.71
2018-07-28T12:25:58.988Z,23.71
2018-07-28T12:26:59.033Z,23.73
2018-07-28T12:27:58.860Z,23.74
2018-07-28T12:28:59.061Z,23.71
2018-07-28T12:29:58.906Z,23.7
2018-07-28T12:30:58.742Z,23.69
2018-07-28T12:31:58.826Z,23.71
2018-07-28T12:32:58.943Z,23.7
2018-07-28T12:33:58.860Z,23.7
2018-07-28T12:35:00.233Z,23.69
2018-07-28T12:35:59.168Z,23.67
2018-07-28T12:36:59.008Z,23.69
2018-07-28T12:37:58.856Z,23.67
2018-07-28T12:38:59.003Z,23.69
2018-07-28T12:39:58.739Z,23.67
2018-07-28T12:40:59.404Z,23.67
2018-07-28T12:41:59.118Z,23.66
2018-07-28T12:42:58.990Z,23.66
2018-07-28T12:43:58.935Z,23.66
2018-07-28T12:44:59.019Z,23.69
2018-07-28T12:45:59.001Z,23.66
2018-07-28T12:46:59.063Z,23.64
2018-07-28T12:47:58.812Z,23.64
2018-07-28T12:48:58.757Z,23.63
2018-07-28T12:49:58.941Z,23.66
2018-07-28T12:50:58.837Z,23.66
2018-07-28T12:51:58.998Z,23.63
2018-07-28T12:52:58.904Z,23.63
2018-07-28T12:53:58.849Z,23.64
2018-07-28T12:54:58.902Z,23.64
2018-07-28T12:55:58.975Z,23.63
2018-07-28T12:56:58.861Z,23.63
2018-07-28T12:57:58.757Z,23.63
2018-07-28T12:58:58.913Z,23.62
2018-07-28T12:59:58.899Z,23.62
2018-07-28T13:00:58.870Z,23.63
2018-07-28T13:01:59.016Z,23.62
2018-07-28T13:02:58.958Z,23.63
2018-07-28T13:04:00.282Z,23.63
2018-07-28T13:04:58.868Z,23.62
2018-07-28T13:05:58.818Z,23.59
2018-07-28T13:06:58.752Z,23.63
2018-07-28T13:07:58.829Z,23.6
2018-07-28T13:08:59.074Z,23.6
2018-07-28T13:09:59.049Z,23.59
2018-07-28T13:10:58.762Z,23.6
2018-07-28T13:11:58.936Z,23.62
2018-07-28T13:12:59.238Z,23.6
2018-07-28T13:13:58.987Z,23.6
2018-07-28T13:14:59.261Z,23.59
2018-07-28T13:15:58.741Z,23.59
2018-07-28T13:16:59.603Z,23.59
2018-07-28T13:17:59.508Z,23.59
2018-07-28T13:18:58.922Z,23.59
2018-07-28T13:19:58.839Z,23.59
2018-07-28T13:20:59.026Z,23.59
2018-07-28T13:21:58.847Z,23.6
2018-07-28T13:22:58.853Z,23.6
2018-07-28T13:23:58.858Z,23.6
2018-07-28T13:24:58.780Z,23.62
2018-07-28T13:25:58.875Z,23.59
2018-07-28T13:26:58.872Z,23.57
2018-07-28T13:27:58.980Z,23.59
2018-07-28T13:28:58.852Z,23.56
2018-07-28T13:29:59.904Z,23.59
2018-07-28T13:30:59.056Z,23.57
2018-07-28T13:31:58.954Z,23.57
2018-07-28T13:32:58.951Z,23.56
2018-07-28T13:33:58.730Z,23.56
2018-07-28T13:34:58.892Z,23.59
2018-07-28T13:35:58.788Z,23.6
2018-07-28T13:36:58.823Z,23.62
2018-07-28T13:37:59.139Z,23.62
2018-07-28T13:38:58.785Z,23.6
2018-07-28T13:39:58.930Z,23.6
2018-07-28T13:40:58.974Z,23.62
2018-07-28T13:41:58.905Z,23.6
2018-07-28T13:42:58.758Z,23.62
2018-07-28T13:43:58.867Z,23.59
2018-07-28T13:44:58.758Z,23.56
2018-07-28T13:45:58.834Z,23.59
2018-07-28T13:46:58.826Z,23.59
2018-07-28T13:47:59.209Z,23.56
2018-07-28T13:48:59.041Z,23.56
2018-07-28T13:49:58.724Z,23.56
2018-07-28T13:50:58.970Z,23.59
2018-07-28T13:51:58.782Z,23.57
2018-07-28T13:52:58.955Z,23.59
2018-07-28T13:53:59.129Z,23.57
2018-07-28T13:54:58.763Z,23.54
2018-07-28T13:55:58.969Z,23.57
2018-07-28T13:56:58.935Z,23.59
2018-07-28T13:57:58.822Z,23.59
2018-07-28T13:58:59.033Z,23.57
2018-07-28T13:59:59.250Z,23.57
2018-07-28T14:00:58.900Z,23.56
2018-07-28T14:01:59.000Z,23.57
2018-07-28T14:02:58.910Z,23.56
2018-07-28T14:03:58.997Z,23.56
2018-07-28T14:04:58.784Z,23.54
2018-07-28T14:05:59.715Z,23.62
2018-07-28T14:06:59.049Z,23.6
2018-07-28T14:07:59.072Z,23.63
2018-07-28T14:08:58.882Z,23.64
2018-07-28T14:09:58.943Z,23.66
2018-07-28T14:10:58.950Z,23.63
2018-07-28T14:11:59.022Z,23.64
2018-07-28T14:12:59.084Z,23.69
2018-07-28T14:13:58.891Z,23.69
2018-07-28T14:14:59.917Z,23.67
2018-07-28T14:15:58.953Z,23.7
2018-07-28T14:16:58.890Z,23.71
2018-07-28T14:17:59.523Z,23.73
2018-07-28T14:18:58.852Z,23.71
2018-07-28T14:19:58.982Z,23.73
2018-07-28T14:20:59.045Z,23.71
2018-07-28T14:21:58.986Z,23.67
2018-07-28T14:22:58.987Z,23.66
2018-07-28T14:23:58.802Z,23.63
2018-07-28T14:24:59.567Z,23.66
2018-07-28T14:25:58.823Z,23.64
2018-07-28T14:26:58.776Z,23.64
2018-07-28T14:27:58.861Z,23.64
2018-07-28T14:28:59.002Z,23.64
2018-07-28T14:29:59.018Z,23.63
2018-07-28T14:30:58.952Z,23.62
2018-07-28T14:31:58.849Z,23.64
2018-07-28T14:32:58.910Z,23.63
2018-07-28T14:33:58.993Z,23.62
2018-07-28T14:34:58.803Z,23.62
2018-07-28T14:35:58.911Z,23.57
2018-07-28T14:36:58.726Z,23.6
2018-07-28T14:37:58.877Z,23.6
2018-07-28T14:38:58.860Z,23.6
2018-07-28T14:39:58.945Z,23.63
2018-07-28T14:40:58.866Z,23.6
2018-07-28T14:41:58.698Z,23.57
2018-07-28T14:42:58.818Z,23.59
2018-07-28T14:43:58.810Z,23.6
2018-07-28T14:44:59.013Z,23.6
2018-07-28T14:45:58.825Z,23.6
2018-07-28T14:46:58.804Z,23.57
2018-07-28T14:47:58.830Z,23.57
2018-07-28T14:48:58.849Z,23.57
2018-07-28T14:49:58.873Z,23.6
2018-07-28T14:50:58.716Z,23.57
2018-07-28T14:51:58.897Z,23.6
2018-07-28T14:52:58.995Z,23.6
2018-07-28T14:54:00.091Z,23.6
2018-07-28T14:54:58.813Z,23.57
2018-07-28T14:55:58.708Z,23.54
2018-07-28T14:56:58.952Z,23.6
2018-07-28T14:57:58.892Z,23.59
2018-07-28T14:58:58.863Z,23.57
2018-07-28T14:59:58.778Z,23.57
2018-07-28T15:00:58.751Z,23.57
2018-07-28T15:01:59.121Z,23.57
2018-07-28T15:02:59.103Z,23.57
2018-07-28T15:03:58.924Z,23.59
2018-07-28T15:04:58.936Z,23.57
2018-07-28T15:05:58.967Z,23.57
2018-07-28T15:06:59.653Z,23.56
2018-07-28T15:07:58.773Z,23.56
2018-07-28T15:08:59.135Z,23.56
2018-07-28T15:09:59.140Z,23.56
2018-07-28T15:10:58.882Z,23.56
2018-07-28T15:11:59.007Z,23.54
2018-07-28T15:12:58.976Z,23.56
2018-07-28T15:13:59.785Z,23.56
2018-07-28T15:14:58.978Z,23.56
2018-07-28T15:15:58.749Z,23.53
2018-07-28T15:16:59.014Z,23.53
2018-07-28T15:17:58.694Z,23.52
2018-07-28T15:18:58.798Z,23.53
2018-07-28T15:19:58.781Z,23.53
2018-07-28T15:20:58.958Z,23.53
2018-07-28T15:21:58.978Z,23.56
2018-07-28T15:22:58.793Z,23.56
2018-07-28T15:23:58.882Z,23.56
2018-07-28T15:24:58.937Z,23.59
2018-07-28T15:25:58.813Z,23.6
2018-07-28T15:26:58.682Z,23.59
2018-07-28T15:27:58.868Z,23.56
2018-07-28T15:28:59.938Z,23.57
2018-07-28T15:29:59.299Z,23.57
2018-07-28T15:30:59.020Z,23.59
2018-07-28T15:31:58.849Z,23.59
2018-07-28T15:32:59.029Z,23.6
2018-07-28T15:33:58.850Z,23.59
2018-07-28T15:34:58.931Z,23.6
2018-07-28T15:35:59.089Z,23.62
2018-07-28T15:36:59.745Z,23.62
2018-07-28T15:37:59.227Z,23.66
2018-07-28T15:38:59.285Z,23.69
2018-07-28T15:39:59.234Z,23.67
2018-07-28T15:40:58.771Z,23.67
2018-07-28T15:41:58.839Z,23.69
2018-07-28T15:42:58.843Z,23.7
2018-07-28T15:43:58.898Z,23.7
2018-07-28T15:44:58.691Z,23.71
2018-07-28T15:45:58.795Z,23.73
2018-07-28T15:46:59.026Z,23.74
2018-07-28T15:47:58.823Z,23.76
2018-07-28T15:48:59.086Z,23.79
2018-07-28T15:49:59.261Z,23.8
2018-07-28T15:50:58.765Z,23.79
2018-07-28T15:51:58.689Z,23.79
2018-07-28T15:52:58.781Z,23.8
2018-07-28T15:53:58.747Z,23.81
2018-07-28T15:54:58.761Z,23.81
2018-07-28T15:55:58.889Z,23.83
2018-07-28T15:56:58.778Z,23.84
2018-07-28T15:57:58.831Z,23.87
2018-07-28T15:58:58.708Z,23.87
2018-07-28T15:59:58.760Z,23.87
2018-07-28T16:00:58.766Z,23.87
2018-07-28T16:01:58.939Z,23.87
2018-07-28T16:02:58.922Z,23.87
2018-07-28T16:03:59.092Z,23.88
2018-07-28T16:04:58.708Z,23.88
2018-07-28T16:05:59.629Z,23.88
2018-07-28T16:06:58.709Z,23.87
2018-07-28T16:07:58.811Z,23.88
2018-07-28T16:08:59.023Z,23.88
2018-07-28T16:09:58.661Z,23.91
2018-07-28T16:10:58.909Z,23.9
2018-07-28T16:11:58.919Z,23.88
2018-07-28T16:12:58.920Z,23.88
2018-07-28T16:13:59.058Z,23.87
2018-07-28T16:14:58.857Z,23.88
2018-07-28T16:15:58.822Z,23.9
2018-07-28T16:16:59.029Z,23.91
2018-07-28T16:17:58.866Z,23.91
2018-07-28T16:18:58.659Z,23.95
2018-07-28T16:19:18.593Z,23.97
2018-07-28T16:20:18.828Z,23.92
2018-07-28T16:21:30.292Z,23.92
2018-07-28T16:22:30.389Z,23.94
2018-07-28T16:23:30.311Z,23.94
2018-07-28T16:24:30.165Z,23.91
2018-07-28T16:25:30.310Z,23.91
2018-07-28T16:26:30.395Z,23.92
2018-07-28T16:27:34.174Z,23.91
2018-07-28T16:28:30.486Z,23.92
2018-07-28T16:28:58.589Z,23.94
2018-07-28T16:29:58.643Z,23.99
2018-07-28T16:30:58.717Z,24.01
2018-07-28T16:31:58.854Z,24.01
2018-07-28T16:32:58.709Z,24.02
2018-07-28T16:33:58.912Z,24.02
2018-07-28T16:34:58.883Z,23.95
2018-07-28T16:35:58.672Z,23.95
2018-07-28T16:36:58.677Z,23.91
2018-07-28T16:37:58.771Z,23.9
2018-07-28T16:38:58.867Z,23.9
2018-07-28T16:39:58.774Z,23.87
2018-07-28T16:40:59.020Z,23.88
2018-07-28T16:41:58.855Z,23.84
2018-07-28T16:42:58.948Z,23.84
2018-07-28T16:43:58.792Z,23.81
2018-07-28T16:44:58.827Z,23.83
2018-07-28T16:45:58.660Z,23.81
2018-07-28T16:46:58.658Z,23.8
2018-07-28T16:47:58.835Z,23.79
2018-07-28T16:48:58.856Z,23.79
2018-07-28T16:49:58.867Z,23.77
2018-07-28T16:50:59.028Z,23.77
2018-07-28T16:51:58.814Z,23.76
2018-07-28T16:52:58.676Z,23.74
2018-07-28T16:53:58.655Z,23.76
2018-07-28T16:54:58.746Z,23.74
2018-07-28T16:55:58.880Z,23.74
2018-07-28T16:56:58.740Z,23.74
2018-07-28T16:57:58.807Z,23.71
2018-07-28T16:58:58.957Z,23.71
2018-07-28T16:59:58.942Z,23.73
2018-07-28T17:00:58.810Z,23.71
2018-07-28T17:01:58.901Z,23.69
2018-07-28T17:02:58.615Z,23.71
2018-07-28T17:03:58.636Z,23.71
2018-07-28T17:04:58.937Z,23.67
2018-07-28T17:05:58.909Z,23.69
2018-07-28T17:06:58.929Z,23.69
2018-07-28T17:07:58.740Z,23.67
2018-07-28T17:08:58.700Z,23.67
2018-07-28T17:09:58.665Z,23.67
2018-07-28T17:10:58.643Z,23.64
2018-07-28T17:11:58.616Z,23.67
2018-07-28T17:12:58.769Z,23.64
2018-07-28T17:13:59.304Z,23.66
2018-07-28T17:14:58.706Z,23.64
2018-07-28T17:15:58.911Z,23.66
2018-07-28T17:16:58.903Z,23.66
2018-07-28T17:17:58.772Z,23.62
2018-07-28T17:18:58.661Z,23.64
2018-07-28T17:19:58.865Z,23.64
2018-07-28T17:20:58.759Z,23.62
2018-07-28T17:21:58.875Z,23.63
2018-07-28T17:22:58.712Z,23.62
2018-07-28T17:23:58.823Z,23.62
2018-07-28T17:24:58.870Z,23.62
2018-07-28T17:25:58.904Z,23.63
2018-07-28T17:26:58.801Z,23.62
2018-07-28T17:27:58.846Z,23.62
2018-07-28T17:28:58.837Z,23.63
2018-07-28T17:29:58.683Z,23.63
2018-07-28T17:31:00.591Z,23.62
2018-07-28T17:31:58.942Z,23.63
2018-07-28T17:32:58.704Z,23.62
2018-07-28T17:33:58.787Z,23.62
2018-07-28T17:34:58.876Z,23.63
2018-07-28T17:35:58.739Z,23.62
2018-07-28T17:36:58.834Z,23.62
2018-07-28T17:37:58.987Z,23.6
2018-07-28T17:38:58.748Z,23.62
2018-07-28T17:39:58.865Z,23.6
2018-07-28T17:40:59.918Z,23.62
2018-07-28T17:41:58.861Z,23.62
2018-07-28T17:42:58.834Z,23.6
2018-07-28T17:43:58.953Z,23.62
2018-07-28T17:44:58.829Z,23.6
2018-07-28T17:45:58.717Z,23.59
2018-07-28T17:46:58.824Z,23.6
2018-07-28T17:47:58.724Z,23.59
2018-07-28T17:48:58.941Z,23.63
2018-07-28T17:49:58.947Z,23.6
2018-07-28T17:50:58.828Z,23.59
2018-07-28T17:51:58.859Z,23.62
2018-07-28T17:52:58.978Z,23.62
2018-07-28T17:53:59.016Z,23.59
2018-07-28T17:54:58.739Z,23.59
2018-07-28T17:55:58.934Z,23.6
2018-07-28T17:56:58.813Z,23.59
2018-07-28T17:57:58.833Z,23.59
2018-07-28T17:58:58.737Z,23.57
2018-07-28T18:00:00.436Z,23.6
2018-07-28T18:00:58.828Z,23.59
2018-07-28T18:01:58.861Z,23.54
2018-07-28T18:02:58.856Z,23.6
2018-07-28T18:03:58.896Z,23.59
2018-07-28T18:04:58.701Z,23.57
2018-07-28T18:05:58.697Z,23.59
2018-07-28T18:06:58.955Z,23.59
2018-07-28T18:07:58.766Z,23.59
2018-07-28T18:08:58.764Z,23.6
2018-07-28T18:09:58.812Z,23.56
2018-07-28T18:10:58.799Z,23.59
2018-07-28T18:11:58.704Z,23.57
2018-07-28T18:12:58.755Z,23.6
2018-07-28T18:13:58.992Z,23.57
2018-07-28T18:14:58.838Z,23.59
2018-07-28T18:15:58.884Z,23.57
2018-07-28T18:16:58.798Z,23.59
2018-07-28T18:17:59.058Z,23.59
2018-07-28T18:18:58.688Z,23.57
2018-07-28T18:19:58.911Z,23.57
2018-07-28T18:20:58.733Z,23.59
2018-07-28T18:21:58.791Z,23.59
2018-07-28T18:22:58.846Z,23.59
2018-07-28T18:23:59.846Z,23.6
2018-07-28T18:24:58.732Z,23.59
2018-07-28T18:25:59.184Z,23.57
2018-07-28T18:26:58.768Z,23.56
2018-07-28T18:27:58.800Z,23.57
2018-07-28T18:28:58.929Z,23.57
2018-07-28T18:29:58.714Z,23.56
2018-07-28T18:30:58.722Z,23.57
2018-07-28T18:31:58.847Z,23.54
2018-07-28T18:32:58.684Z,23.59
2018-07-28T18:33:58.810Z,23.57
2018-07-28T18:34:58.877Z,23.56
2018-07-28T18:35:58.684Z,23.56
2018-07-28T18:36:58.900Z,23.56
2018-07-28T18:37:58.828Z,23.56
2018-07-28T18:38:58.832Z,23.56
2018-07-28T18:39:58.656Z,23.54
2018-07-28T18:40:58.803Z,23.56
2018-07-28T18:41:58.689Z,23.54
2018-07-28T18:42:59.010Z,23.56
2018-07-28T18:43:58.852Z,23.54
2018-07-28T18:44:58.996Z,23.53
2018-07-28T18:45:58.900Z,23.53
2018-07-28T18:46:58.786Z,23.54
2018-07-28T18:47:58.982Z,23.54
2018-07-28T18:49:00.062Z,23.52
2018-07-28T18:49:58.971Z,23.53
2018-07-28T18:50:59.876Z,23.57
2018-07-28T18:51:58.905Z,23.52
2018-07-28T18:52:58.901Z,23.54
2018-07-28T18:53:58.713Z,23.54
2018-07-28T18:54:59.099Z,23.54
2018-07-28T18:55:58.860Z,23.54
2018-07-28T18:56:58.622Z,23.56
2018-07-28T18:57:58.795Z,23.53
2018-07-28T18:58:58.928Z,23.53
2018-07-28T18:59:58.733Z,23.53
2018-07-28T19:00:59.533Z,23.53
2018-07-28T19:01:58.788Z,23.54
2018-07-28T19:02:58.776Z,23.54
2018-07-28T19:03:59.105Z,23.53
2018-07-28T19:04:58.986Z,23.54
2018-07-28T19:05:58.688Z,23.54
2018-07-28T19:06:58.751Z,23.56
2018-07-28T19:07:58.718Z,23.54
2018-07-28T19:08:58.753Z,23.53
2018-07-28T19:09:58.636Z,23.53
2018-07-28T19:10:58.863Z,23.54
2018-07-28T19:11:59.774Z,23.54
2018-07-28T19:12:58.754Z,23.53
2018-07-28T19:13:58.710Z,23.54
2018-07-28T19:14:58.875Z,23.52
2018-07-28T19:15:58.859Z,23.54
2018-07-28T19:16:58.801Z,23.59
2018-07-28T19:17:59.066Z,23.59
2018-07-28T19:18:58.734Z,23.6
2018-07-28T19:19:58.978Z,23.62
2018-07-28T19:20:59.894Z,23.63
2018-07-28T19:21:58.697Z,23.63
2018-07-28T19:22:58.853Z,23.66
2018-07-28T19:23:58.815Z,23.66
2018-07-28T19:24:58.722Z,23.67
2018-07-28T19:25:58.723Z,23.69
2018-07-28T19:26:58.790Z,23.69
2018-07-28T19:27:58.919Z,23.71
2018-07-28T19:28:58.883Z,23.73
2018-07-28T19:29:58.689Z,23.73
2018-07-28T19:30:59.457Z,23.73
2018-07-28T19:31:58.838Z,23.71
2018-07-28T19:32:59.056Z,23.73
2018-07-28T19:33:58.747Z,23.74
2018-07-28T19:34:58.773Z,23.76
2018-07-28T19:35:58.609Z,23.76
2018-07-28T19:36:58.847Z,23.77
2018-07-28T19:37:58.775Z,23.79
2018-07-28T19:38:58.810Z,23.8
2018-07-28T19:39:58.755Z,23.8
2018-07-28T19:40:58.831Z,23.81
2018-07-28T19:41:58.697Z,23.8
2018-07-28T19:42:58.748Z,23.8
2018-07-28T19:43:58.731Z,23.8
2018-07-28T19:44:58.616Z,23.81
2018-07-28T19:45:58.658Z,23.8
2018-07-28T19:46:58.742Z,23.77
2018-07-28T19:47:58.812Z,23.79
2018-07-28T19:48:58.868Z,23.8
2018-07-28T19:49:58.883Z,23.79
2018-07-28T19:50:58.831Z,23.8
2018-07-28T19:51:58.664Z,23.83
2018-07-28T19:52:58.945Z,23.83
2018-07-28T19:53:58.847Z,23.84
2018-07-28T19:54:58.719Z,23.84
2018-07-28T19:55:58.656Z,23.84
2018-07-28T19:56:58.669Z,23.85
2018-07-28T19:57:58.817Z,23.85
2018-07-28T19:58:58.729Z,23.85
2018-07-28T19:59:58.859Z,23.85
2018-07-28T20:00:58.963Z,23.87
2018-07-28T20:01:58.719Z,23.87
2018-07-28T20:02:58.649Z,23.84
2018-07-28T20:03:58.772Z,23.88
2018-07-28T20:04:58.863Z,23.87
2018-07-28T20:05:58.789Z,23.87
2018-07-28T20:06:58.641Z,23.88
2018-07-28T20:07:58.966Z,23.88
2018-07-28T20:08:59.071Z,23.91
2018-07-28T20:09:58.771Z,23.88
2018-07-28T20:10:58.868Z,23.88
2018-07-28T20:11:58.607Z,23.83
2018-07-28T20:12:58.782Z,23.8
2018-07-28T20:13:59.411Z,23.79
2018-07-28T20:14:58.809Z,23.8
2018-07-28T20:15:58.864Z,23.79
2018-07-28T20:16:59.831Z,23.76
2018-07-28T20:17:58.819Z,23.77
2018-07-28T20:18:58.880Z,23.73
2018-07-28T20:19:58.973Z,23.73
2018-07-28T20:20:58.550Z,23.74
2018-07-28T20:21:58.882Z,23.73
2018-07-28T20:22:58.827Z,23.73
2018-07-28T20:23:58.830Z,23.74
2018-07-28T20:24:58.793Z,23.73
2018-07-28T20:25:58.705Z,23.73
2018-07-28T20:26:58.938Z,23.71
2018-07-28T20:27:58.658Z,23.69
2018-07-28T20:28:58.881Z,23.71
2018-07-28T20:29:59.234Z,23.64
2018-07-28T20:30:58.842Z,23.7
2018-07-28T20:31:59.482Z,23.7
2018-07-28T20:32:58.837Z,23.67
2018-07-28T20:33:59.089Z,23.69
2018-07-28T20:34:59.332Z,23.67
2018-07-28T20:35:58.777Z,23.69
2018-07-28T20:36:58.917Z,23.66
2018-07-28T20:37:58.806Z,23.64